WBGBWBGG

Guest
Details From WBGB - BINTULU
To WBGG - Kuching Intl
Flight Number -
Tags generated
Created
Modified
Stats Distance 195 nm / 361 km
Max Altitude 24,500 ft / 7,468 m
Waypoints 4
Social Downloads 0
Likes 0
Share VATSIM

Download

Looking for another format? Having issues loading an existing format? Contact us
Advertisement - Login to hide

Notes

Basic altitude profile: - Ascent Rate: 2500ft/min - Ascent Speed: 250kts - Cruise Altitude: 35000ft - Cruise Speed: 420kts - Descent Rate: 1500ft/min - Descent Speed: 250kts Options: - Use NATs: yes - Use PACOTS: yes - Use low airways: yes - Use high airways: yes

Route

WBGB VSI G460 VKG WBGG

ID Type Via Altitude Latitude Longitude Leg Dist Tot Dist Heading (true) Name
O WBGB APT - 0 ft / 0 m 3.12384˚ 113.02047˚ - 0 nm - BINTULU
VSI VOR - 24,500 ft / 7,468 m 2.24681˚ 112.00339˚ 80 nm 80 nm 229° / 229° SIBU VOR-DME
VKG VOR G460 (AWY-LO) 6,500 ft / 1,981 m 1.47333˚ 110.30575˚ 111 nm 192 nm 246° / 245° KUCHING VOR-DME
O WBGG APT - 0 ft / 0 m 1.48470˚ 110.34693˚ 2 nm 195 nm 75° / 75° Kuching Intl

Altitude Profile

Advertisement - Login to hide

Weather


0- 5 10 15 20 25 30 35+ Temperature / ° C

Clouds and Precipitation
Forecast for 2018-05-24 12:00 UTC. Updated 2 hours ago

Ground ~20,000 ft ~40,000 ft Winds

WBGB

Details ICAO WBGB (BTU)
Name BINTULU
Region Brunei and Malaysia
Timezone Asia/Kuching (UTC+8.0)
Stats Elevation 74 ft / 23 m (AMSL)
Location 3.123838° 113.020472°
Runways 1
Magnetic Variation 0.076° E

METAR

WBGB 241300Z 00000KT 9999 FEW015CB SCT016 BKN150 28/26 Q1008

Decode

TAF

Not found

Departure Runways

ID Width Length Bearing (true) Bearing (mag) Surface Threshold Offset Overrun Length
17 147 ft / 45 m 9,042 ft / 2,756 m 167.88° 167.80° Asphalt 0 ft / 0 m 197 ft / 60 m
35 147 ft / 45 m 9,042 ft / 2,756 m 347.88° 347.80° Asphalt 0 ft / 0 m 197 ft / 60 m

WBGG

Details ICAO WBGG (KCH)
Name Kuching Intl
Region Brunei and Malaysia
Timezone Asia/Kuching (UTC+8.0)
Stats Elevation 89 ft / 27 m (AMSL)
Location 1.484698° 110.346932°
Runways 1
Magnetic Variation 0.334° E

METAR

WBGG 241330Z 24003KT 190V300 9999 FEW020 BKN150 26/24 Q1009 NOSIG

Decode

TAF

TAF WBGG 241100Z 2412/2512 33005KT 9999 FEW020 TEMPO 2418/2422 4000 TSRA FEW015CB

Decode

Destination Runways

ID Width Length Bearing (true) Bearing (mag) Surface Threshold Offset Overrun Length
07 151 ft / 46 m 8,012 ft / 2,442 m 68.26° 67.93° Asphalt 0 ft / 0 m 0 ft / 0 m
25 151 ft / 46 m 8,012 ft / 2,442 m 248.26° 247.93° Asphalt 320 ft / 98 m 0 ft / 0 m

Approach Navaids

Runway Type Ident Frequency Range Bearing (true) Bearing (mag) Slope Elevation
25 Localiser IKG 110.30 MHz 18 nm / 33 km 248.23° 247.89° - 89 ft / 27 m (AMSL)
25 Glidescope IKG 110.30 MHz 10 nm / 19 km 248.26° 247.93° 3.00° 89 ft / 27 m (AMSL)
25 DME IKG 110.30 MHz 18 nm / 33 km - - - 89 ft / 27 m (AMSL)

Popular Alternatives